• Join FlightAware (Why Join?)
  • Login
  • US Flag 
06:25AM EDT


 

Airport Tracker/Info


-or-


 

Live Flight TrackerFlight Track Log ✈ N402BD ✈ 01-May-2012 ✈ KPUB - KALM

Flight Track Log - Related Links

Times and Time Zones

All times are in EDT time to prevent confusion due to time zone crossing. See the N402BD flight status page for this flight to view local times or setup timezone preferences in your user account.

Time Position Orientation Groundspeed Altitude Reporting Facility
EDT Latitude Longitude Course Direction KTS MPH feet Rate Location/Type
05:30PM 38.2667 -104.4833 180° South 95 109 5,900  Level Denver TRACON
05:31PM 38.2333 -104.4833 205° Southwest 99 114 6,400 420 Climbing Denver TRACON
05:34PM 38.1500 -104.5333 191° South 117 135 7,800 360 Climbing Denver TRACON
05:34PM 38.1283 -104.5389 198° South 125 144 7,900 300 Climbing Denver Center
05:35PM 38.0931 -104.5531 194° South 133 153 8,300 240 Climbing Denver Center
05:36PM 38.0558 -104.5644 191° South 133 153 8,400 60 Climbing Denver Center
05:37PM 38.0206 -104.5733 196° South 146 168 8,500 180 Climbing Denver Center
05:38PM 37.9811 -104.5875 191° South 146 168 8,800 480 Climbing Denver Center
05:39PM 37.9458 -104.5964 196° South 134 154 9,500 600 Climbing Denver Center
05:40PM 37.9147 -104.6078 193° South 124 143 10,100 360 Climbing Denver Center
05:41PM 37.8858 -104.6164 193° South 124 143 10,300 120 Climbing Denver Center
05:42PM 37.8483 -104.6278 194° South 124 143 10,400  Climbing Denver Center
05:43PM 37.8131 -104.6392 188° South 130 150 10,400 300 Level Denver Center
05:44PM 37.7758 -104.6456 190° South 130 150 11,100 660 Climbing Denver Center
05:45PM 37.7508 -104.6514 195° South 117 135 11,800 600 Climbing Denver Center
05:46PM 37.7175 -104.6628 198° South 117 135 12,300 300 Climbing Denver Center
05:47PM 37.6844 -104.6767 190° South 122 140 12,400 60 Climbing Denver Center
05:48PM 37.6450 -104.6856 194° South 136 157 12,500  Climbing Denver Center
05:49PM 37.6078 -104.6969 186° South 151 174 12,400  Descending Denver Center
05:50PM 37.5597 -104.7033 191° South 156 180 12,500  Climbing Denver Center
05:51PM 37.5244 -104.7119 185° South 156 180 12,500 -60 Level Denver Center
05:52PM 37.4914 -104.7156 187° South 140 161 12,400 -60 Descending Denver Center
05:53PM 37.4558 -104.7214 187° South 135 155 12,400  Level Denver Center
05:54PM 37.4122 -104.7278 192° South 140 161 12,500  Climbing Denver Center
05:55PM 37.3686 -104.7392 185° South 145 167 12,400 -120 Descending Denver Center
05:56PM 37.3353 -104.7428 184° South 145 167 12,300  Descending Denver Center
05:57PM 37.2936 -104.7464 190° South 140 161 12,400  Climbing Denver Center
05:58PM 37.2542 -104.7550 194° South 140 161 12,400  Level Denver Center
05:59PM 37.2169 -104.7664 195° South 140 161 12,400  Level Denver Center
06:00PM 37.1836 -104.7775 190° South 140 161 12,400 -60 Level Denver Center
06:01PM 37.1442 -104.7864 188° South 140 161 12,300  Descending Denver Center
06:02PM 37.1089 -104.7922 187° South 140 161 12,400 60 Climbing Denver Center
06:03PM 37.0694 -104.7983 192° South 140 161 12,500 180 Climbing Denver Center
06:04PM 37.0361 -104.8069 187° South 145 167 12,800 420 Climbing Denver Center
06:07PM 36.9472 -104.8197 188° South 144 166 14,000 420 Climbing Albuquerque Center
06:08PM 36.9097 -104.8261 192° South 138 159 14,300 240 Climbing Albuquerque Center
06:09PM 36.8767 -104.8350 193° South 128 147 14,500  Climbing Albuquerque Center
06:10PM 36.8372 -104.8467 191° South 128 147 14,400  Descending Albuquerque Center
06:11PM 36.7978 -104.8558 188° South 145 167 14,500  Climbing Albuquerque Center
06:12PM 36.7644 -104.8619 193° South 138 159 14,500  Level Albuquerque Center
06:13PM 36.7250 -104.8736 196° South 145 167 14,600  Climbing Albuquerque Center
06:14PM 36.6775 -104.8906 191° South 158 182 14,500 -60 Descending Albuquerque Center
06:15PM 36.6400 -104.8997 208° Southwest 156 180 14,500  Level Albuquerque Center
06:16PM 36.6031 -104.9242 199° South 149 171 14,600 -60 Climbing Albuquerque Center
06:17PM 36.5636 -104.9408 192° South 157 181 14,400 -120 Descending Albuquerque Center
06:18PM 36.5306 -104.9494 200° South 152 175 14,400 -60 Level Albuquerque Center
06:19PM 36.4933 -104.9661 182° South 146 168 14,300 -60 Descending Albuquerque Center
06:20PM 36.4558 -104.9675 150° Southeast 146 168 14,300  Level Albuquerque Center
06:21PM 36.4239 -104.9450 156° South 135 155 14,400 180 Climbing Albuquerque Center
06:22PM 36.3881 -104.9256 160° South 135 155 14,700 120 Climbing Albuquerque Center
06:23PM 36.3503 -104.9086 164° South 141 162 14,700 -60 Level Albuquerque Center
06:24PM 36.3103 -104.8944 167° South 146 168 14,600  Descending Albuquerque Center
06:25PM 36.2683 -104.8828 187° South 146 168 14,700 60 Climbing Albuquerque Center
06:26PM 36.2247 -104.8894 181° South 146 168 14,800  Climbing Albuquerque Center
06:27PM 36.1850 -104.8906 203° Southwest 146 168 14,800  Level Albuquerque Center
06:28PM 36.1478 -104.9097 203° Southwest 146 168 14,800  Level Albuquerque Center
06:29PM 36.1108 -104.9292 198° South 146 168 14,900  Climbing Albuquerque Center
06:30PM 36.0756 -104.9431 196° South 146 168 14,800 -120 Descending Albuquerque Center
06:31PM 36.0361 -104.9569 197° South 146 168 14,700  Descending Albuquerque Center
06:32PM 35.9989 -104.9708 202° Southwest 146 168 14,800  Climbing Albuquerque Center
06:33PM 35.9597 -104.9900 197° South 151 174 14,700 -60 Descending Albuquerque Center
06:34PM 35.9222 -105.0042 206° Southwest 145 167 14,700 -120 Level Albuquerque Center
06:35PM 35.8872 -105.0256 203° Southwest 145 167 14,500  Descending Albuquerque Center
06:36PM 35.8564 -105.0419 205° Southwest 145 167 14,800  Climbing Albuquerque Center
06:37PM 35.8192 -105.0633 198° South 145 167 14,600 -120 Descending Albuquerque Center
06:38PM 35.7839 -105.0772 193° South 140 161 14,600 -60 Level Albuquerque Center
06:39PM 35.7444 -105.0886 191° South 146 168 14,500  Descending Albuquerque Center
06:40PM 35.7072 -105.0975 193° South 146 168 14,600 -60 Climbing Albuquerque Center
06:41PM 35.6656 -105.1089 190° South 146 168 14,400 -300 Descending Albuquerque Center
06:42PM 35.6261 -105.1175 195° South 146 168 14,000 -300 Descending Albuquerque Center
06:43PM 35.5847 -105.1314 195° South 146 168 13,800 -360 Descending Albuquerque Center
06:44PM 35.5431 -105.1453 200° South 146 168 13,300 -480 Descending Albuquerque Center
06:45PM 35.5058 -105.1617 206° Southwest 146 168 12,900 -420 Descending Albuquerque Center
06:46PM 35.4708 -105.1831 206° Southwest 146 168 12,500 -240 Descending Albuquerque Center
06:47PM 35.4439 -105.1992 213° Southwest 128 147 12,500 240 Level Albuquerque Center
06:48PM 35.4172 -105.2203 214° Southwest 123 142 13,000 300 Climbing Albuquerque Center
06:49PM 35.3883 -105.2439 197° South 116 133 13,100 180 Climbing Albuquerque Center
06:50PM 35.3594 -105.2550 195° South 121 139 13,400 120 Climbing Albuquerque Center
06:51PM 35.3264 -105.2658 201° Southwest 121 139 13,400  Level Albuquerque Center
06:52PM 35.2911 -105.2822 181° South 128 147 13,500 120 Climbing Albuquerque Center
06:53PM 35.2578 -105.2831 178° South 128 147 13,700 -120 Climbing Albuquerque Center
06:54PM 35.2181 -105.2814 195° South 133 153 13,300 -300 Descending Albuquerque Center
06:55PM 35.1847 -105.2925 203° Southwest 133 153 13,100 -120 Descending Albuquerque Center
06:56PM 35.1539 -105.3086 226° Southwest 132 152 13,100 60 Level Albuquerque Center
06:57PM 35.1292 -105.3397 204° Southwest 127 146 13,300 -60 Climbing Albuquerque Center
06:58PM 35.0961 -105.3581 219° Southwest 134 154 13,000 -300 Descending Albuquerque Center
06:59PM 35.0694 -105.3842 263° West 128 147 12,800 -300 Descending Albuquerque Center
07:00PM 35.0658 -105.4225 259° West 109 125 12,400 -420 Descending Albuquerque Center
07:01PM 35.0603 -105.4581 183° South 109 125 12,000 -420 Descending Albuquerque Center
07:09PM 34.7538 -105.4782 192° South  Level FlightAware Approximate
07:10PM 34.7156 -105.4885 192° South  Level FlightAware Approximate
07:11PM 34.6774 -105.4988 192° South  Level FlightAware Approximate
07:12PM 34.6392 -105.5091 192° South  Level FlightAware Approximate
07:13PM 34.6009 -105.5193 192° South  Level FlightAware Approximate
07:14PM 34.5627 -105.5296 192° South  Level FlightAware Approximate
07:15PM 34.5245 -105.5398 192° South  Level FlightAware Approximate
07:16PM 34.4863 -105.5500 187° South  Level FlightAware Approximate
07:17PM 34.4477 -105.5555 193° South  Level FlightAware Approximate
07:18PM 34.4095 -105.5658 193° South  Level FlightAware Approximate
07:19PM 34.3713 -105.5761 193° South  Level FlightAware Approximate
07:20PM 34.3330 -105.5864 193° South  Level FlightAware Approximate
07:21PM 34.2948 -105.5967 193° South  Level FlightAware Approximate
07:22PM 34.2566 -105.6069 193° South  Level FlightAware Approximate
07:23PM 34.2184 -105.6172 193° South  Level FlightAware Approximate
07:24PM 34.1802 -105.6275 193° South  Level FlightAware Approximate
07:25PM 34.1420 -105.6377 199° South  Level FlightAware Approximate
07:26PM 34.1051 -105.6528 192° South  Level FlightAware Approximate
07:27PM 34.0668 -105.6629 192° South  Level FlightAware Approximate
07:28PM 34.0286 -105.6730 192° South  Level FlightAware Approximate
07:29PM 33.9903 -105.6831 192° South  Level FlightAware Approximate
07:30PM 33.9521 -105.6931 192° South  Level FlightAware Approximate
07:31PM 33.9139 -105.7032 192° South  Level FlightAware Approximate
07:32PM 33.8756 -105.7132 192° South  Level FlightAware Approximate
07:33PM 33.8374 -105.7232 192° South  Level FlightAware Approximate
07:34PM 33.7991 -105.7333 192° South  Level FlightAware Approximate
07:35PM 33.7609 -105.7433 192° South  Level FlightAware Approximate
07:36PM 33.7226 -105.7533 192° South  Level FlightAware Approximate
07:37PM 33.6844 -105.7633 192° South  Level FlightAware Approximate
07:38PM 33.6461 -105.7732 183° South  Level FlightAware Approximate
07:39PM 33.6093 -105.7757 193° South  Level FlightAware Approximate
07:40PM 33.5711 -105.7860 193° South  Level FlightAware Approximate
07:41PM 33.5329 -105.7963 206° Southwest  Level FlightAware Approximate
07:42PM 33.4979 -105.8170 192° South  Level FlightAware Approximate
07:43PM 33.4596 -105.8266 192° South  Level FlightAware Approximate
07:44PM 33.4213 -105.8363 177° South  Level FlightAware Approximate
07:45PM 33.3825 -105.8342 201° Southwest  Level FlightAware Approximate
07:46PM 33.3481 -105.8500 190° South  Level FlightAware Approximate
07:47PM 33.3099 -105.8578 192° South  Level FlightAware Approximate
07:48PM 33.2717 -105.8679 192° South  Level FlightAware Approximate
07:49PM 33.2335 -105.8781 192° South  Level FlightAware Approximate
07:50PM 33.1952 -105.8882 202° Southwest  Level FlightAware Approximate
07:51PM 33.1601 -105.9052 191° South  Level FlightAware Approximate
07:52PM 33.1217 -105.9144 191° South  Level FlightAware Approximate
07:53PM 33.0834 -105.9236 191° South  Level FlightAware Approximate
07:54PM 33.0450 -105.9328 191° South  Level FlightAware Approximate
07:55PM 33.0066 -105.9420 191° South  Level FlightAware Approximate
07:56PM 32.9682 -105.9511 191° South  Level FlightAware Approximate
07:57PM 32.9298 -105.9603 191° South  Level FlightAware Approximate
07:58PM 32.8915 -105.9695 195° South  Level FlightAware Approximate
07:59PM 32.8550 -105.9808 186° South  Level FlightAware Approximate
08:00PM 32.8333 -105.9833 317° Northwest  Level FlightAware Approximate
08:01PM 32.8621 -106.0149 137° Southeast  Level Estimated
08:02PM 32.8333 -105.9833 317° Northwest  Level FlightAware Approximate
08:03PM 32.8621 -106.0149 137° Southeast  Level Estimated
08:04PM 32.8333 -105.9833 317° Northwest  Level FlightAware Approximate
08:05PM 32.8621 -106.0149 137° Southeast  Level Estimated
08:06PM 32.8333 -105.9833 317° Northwest  Level FlightAware Approximate
08:07PM 32.8621 -106.0149 137° Southeast  Level Estimated
08:08PM 32.8333 -105.9833 317° Northwest  Level FlightAware Approximate
08:09PM 32.8621 -106.0149 317° Northwest  Level Estimated